sensor_id;sensor_type;location;lat;lon;timestamp;temperature;humidity
52481;DHT22;38393;52.404;13.532;2023-04-29T00:01:06;11.60;92.80
52481;DHT22;38393;52.404;13.532;2023-04-29T00:03:32;11.50;92.60
52481;DHT22;38393;52.404;13.532;2023-04-29T00:05:58;11.60;92.80
52481;DHT22;38393;52.404;13.532;2023-04-29T00:08:24;11.50;93.10
52481;DHT22;38393;52.404;13.532;2023-04-29T00:10:49;11.50;93.10
52481;DHT22;38393;52.404;13.532;2023-04-29T00:13:15;11.50;92.90
52481;DHT22;38393;52.404;13.532;2023-04-29T00:15:41;11.60;92.90
52481;DHT22;38393;52.404;13.532;2023-04-29T00:18:06;11.60;92.90
52481;DHT22;38393;52.404;13.532;2023-04-29T00:20:33;11.60;93.00
52481;DHT22;38393;52.404;13.532;2023-04-29T00:22:58;11.60;92.90
52481;DHT22;38393;52.404;13.532;2023-04-29T00:25:24;11.60;93.10
52481;DHT22;38393;52.404;13.532;2023-04-29T00:27:49;11.60;93.00
52481;DHT22;38393;52.404;13.532;2023-04-29T00:30:15;11.60;93.10
52481;DHT22;38393;52.404;13.532;2023-04-29T00:32:41;11.50;93.00
52481;DHT22;38393;52.404;13.532;2023-04-29T00:35:07;11.50;93.00
52481;DHT22;38393;52.404;13.532;2023-04-29T00:37:33;11.40;93.10
52481;DHT22;38393;52.404;13.532;2023-04-29T00:39:59;11.40;93.40
52481;DHT22;38393;52.404;13.532;2023-04-29T00:42:25;11.40;93.50
52481;DHT22;38393;52.404;13.532;2023-04-29T00:44:50;11.30;93.60
52481;DHT22;38393;52.404;13.532;2023-04-29T00:47:16;11.20;93.90
52481;DHT22;38393;52.404;13.532;2023-04-29T00:49:42;11.10;93.90
52481;DHT22;38393;52.404;13.532;2023-04-29T00:52:09;10.90;94.20
52481;DHT22;38393;52.404;13.532;2023-04-29T00:54:36;10.90;94.40
52481;DHT22;38393;52.404;13.532;2023-04-29T00:57:03;10.90;94.40
52481;DHT22;38393;52.404;13.532;2023-04-29T00:59:32;10.90;94.50
52481;DHT22;38393;52.404;13.532;2023-04-29T01:01:59;10.90;94.70
52481;DHT22;38393;52.404;13.532;2023-04-29T01:04:25;10.90;94.70
52481;DHT22;38393;52.404;13.532;2023-04-29T01:07:16;10.80;94.90
52481;DHT22;38393;52.404;13.532;2023-04-29T01:12:36;10.80;95.30
52481;DHT22;38393;52.404;13.532;2023-04-29T01:15:20;10.90;95.30
52481;DHT22;38393;52.404;13.532;2023-04-29T01:20:19;10.90;95.80
52481;DHT22;38393;52.404;13.532;2023-04-29T01:22:46;10.80;96.80
52481;DHT22;38393;52.404;13.532;2023-04-29T01:25:13;10.80;97.20
52481;DHT22;38393;52.404;13.532;2023-04-29T01:30:59;10.80;97.60
52481;DHT22;38393;52.404;13.532;2023-04-29T01:33:49;10.70;97.80
52481;DHT22;38393;52.404;13.532;2023-04-29T01:36:32;10.70;98.30
52481;DHT22;38393;52.404;13.532;2023-04-29T01:39:22;10.70;98.50
52481;DHT22;38393;52.404;13.532;2023-04-29T01:41:56;10.60;99.20
52481;DHT22;38393;52.404;13.532;2023-04-29T01:44:28;10.60;99.60
52481;DHT22;38393;52.404;13.532;2023-04-29T01:46:54;10.60;99.60
52481;DHT22;38393;52.404;13.532;2023-04-29T01:49:24;10.60;99.90
52481;DHT22;38393;52.404;13.532;2023-04-29T01:51:50;10.60;99.90
52481;DHT22;38393;52.404;13.532;2023-04-29T01:54:15;10.50;99.90
52481;DHT22;38393;52.404;13.532;2023-04-29T01:56:41;10.60;99.90
52481;DHT22;38393;52.404;13.532;2023-04-29T01:59:07;10.50;99.90
52481;DHT22;38393;52.404;13.532;2023-04-29T02:01:33;10.60;99.90
52481;DHT22;38393;52.404;13.532;2023-04-29T02:03:58;10.50;99.90
52481;DHT22;38393;52.404;13.532;2023-04-29T02:06:24;10.60;99.90
52481;DHT22;38393;52.404;13.532;2023-04-29T02:08:50;10.70;99.90
52481;DHT22;38393;52.404;13.532;2023-04-29T02:11:16;10.50;99.90
52481;DHT22;38393;52.404;13.532;2023-04-29T02:13:42;10.60;99.90
52481;DHT22;38393;52.404;13.532;2023-04-29T02:16:08;10.50;99.90
52481;DHT22;38393;52.404;13.532;2023-04-29T02:18:34;10.60;99.90
52481;DHT22;38393;52.404;13.532;2023-04-29T02:21:00;10.60;99.90
52481;DHT22;38393;52.404;13.532;2023-04-29T02:23:28;10.50;99.90
52481;DHT22;38393;52.404;13.532;2023-04-29T02:25:54;10.50;99.90
52481;DHT22;38393;52.404;13.532;2023-04-29T02:28:20;10.50;99.90
52481;DHT22;38393;52.404;13.532;2023-04-29T02:30:45;10.50;99.90
52481;DHT22;38393;52.404;13.532;2023-04-29T02:33:11;10.50;99.90
52481;DHT22;38393;52.404;13.532;2023-04-29T02:35:36;10.50;99.90
52481;DHT22;38393;52.404;13.532;2023-04-29T02:38:02;10.60;99.90
52481;DHT22;38393;52.404;13.532;2023-04-29T02:40:27;10.60;99.90
52481;DHT22;38393;52.404;13.532;2023-04-29T02:42:53;10.60;99.90
52481;DHT22;38393;52.404;13.532;2023-04-29T02:45:19;10.60;99.90
52481;DHT22;38393;52.404;13.532;2023-04-29T02:47:44;10.70;99.90
52481;DHT22;38393;52.404;13.532;2023-04-29T02:50:10;10.50;99.90
52481;DHT22;38393;52.404;13.532;2023-04-29T02:52:35;10.50;99.90
52481;DHT22;38393;52.404;13.532;2023-04-29T02:55:01;10.50;99.90
52481;DHT22;38393;52.404;13.532;2023-04-29T02:57:26;10.60;99.90
52481;DHT22;38393;52.404;13.532;2023-04-29T02:59:54;10.50;99.90
52481;DHT22;38393;52.404;13.532;2023-04-29T03:02:19;10.50;99.90
52481;DHT22;38393;52.404;13.532;2023-04-29T03:04:44;10.50;99.90
52481;DHT22;38393;52.404;13.532;2023-04-29T03:07:11;10.50;99.90
52481;DHT22;38393;52.404;13.532;2023-04-29T03:09:36;10.40;99.90
52481;DHT22;38393;52.404;13.532;2023-04-29T03:12:02;10.50;99.90
52481;DHT22;38393;52.404;13.532;2023-04-29T03:14:27;10.50;99.90
52481;DHT22;38393;52.404;13.532;2023-04-29T03:16:53;10.50;99.90
52481;DHT22;38393;52.404;13.532;2023-04-29T03:19:20;10.50;99.90
52481;DHT22;38393;52.404;13.532;2023-04-29T03:21:46;10.50;99.90
52481;DHT22;38393;52.404;13.532;2023-04-29T03:24:11;10.50;99.90
52481;DHT22;38393;52.404;13.532;2023-04-29T03:26:37;10.60;99.90
52481;DHT22;38393;52.404;13.532;2023-04-29T03:29:02;10.50;99.90
52481;DHT22;38393;52.404;13.532;2023-04-29T03:31:28;10.60;99.90
52481;DHT22;38393;52.404;13.532;2023-04-29T03:33:53;10.70;99.90
52481;DHT22;38393;52.404;13.532;2023-04-29T03:36:19;10.60;99.90
52481;DHT22;38393;52.404;13.532;2023-04-29T03:38:45;10.70;99.90
52481;DHT22;38393;52.404;13.532;2023-04-29T03:41:10;10.60;99.90
52481;DHT22;38393;52.404;13.532;2023-04-29T03:43:36;10.60;99.90
52481;DHT22;38393;52.404;13.532;2023-04-29T03:46:01;10.70;99.90
52481;DHT22;38393;52.404;13.532;2023-04-29T03:48:27;10.70;99.90
52481;DHT22;38393;52.404;13.532;2023-04-29T03:50:52;10.60;99.90
52481;DHT22;38393;52.404;13.532;2023-04-29T03:53:18;10.70;99.90
52481;DHT22;38393;52.404;13.532;2023-04-29T03:55:43;10.70;99.90
52481;DHT22;38393;52.404;13.532;2023-04-29T03:58:09;10.70;99.90
52481;DHT22;38393;52.404;13.532;2023-04-29T04:00:34;10.60;99.90
52481;DHT22;38393;52.404;13.532;2023-04-29T04:03:00;10.70;99.90
52481;DHT22;38393;52.404;13.532;2023-04-29T04:05:26;10.70;99.90
52481;DHT22;38393;52.404;13.532;2023-04-29T04:07:51;10.80;99.90
52481;DHT22;38393;52.404;13.532;2023-04-29T04:10:17;10.70;99.90
52481;DHT22;38393;52.404;13.532;2023-04-29T04:12:43;10.70;99.90
52481;DHT22;38393;52.404;13.532;2023-04-29T04:15:09;10.70;99.90
52481;DHT22;38393;52.404;13.532;2023-04-29T04:17:34;10.80;99.90
52481;DHT22;38393;52.404;13.532;2023-04-29T04:20:00;10.80;99.90
52481;DHT22;38393;52.404;13.532;2023-04-29T04:22:25;10.80;99.90
52481;DHT22;38393;52.404;13.532;2023-04-29T04:24:54;11.00;99.90
52481;DHT22;38393;52.404;13.532;2023-04-29T04:27:19;10.80;99.90
52481;DHT22;38393;52.404;13.532;2023-04-29T04:29:45;10.80;99.90
52481;DHT22;38393;52.404;13.532;2023-04-29T04:32:10;10.90;99.90
52481;DHT22;38393;52.404;13.532;2023-04-29T04:34:36;10.90;99.90
52481;DHT22;38393;52.404;13.532;2023-04-29T04:37:04;10.90;99.90
52481;DHT22;38393;52.404;13.532;2023-04-29T04:39:29;11.00;99.90
52481;DHT22;38393;52.404;13.532;2023-04-29T04:41:55;11.00;99.90
52481;DHT22;38393;52.404;13.532;2023-04-29T04:44:20;11.10;99.90
52481;DHT22;38393;52.404;13.532;2023-04-29T04:46:45;11.00;99.90
52481;DHT22;38393;52.404;13.532;2023-04-29T04:49:11;11.10;99.90
52481;DHT22;38393;52.404;13.532;2023-04-29T04:51:36;11.20;99.90
52481;DHT22;38393;52.404;13.532;2023-04-29T04:54:02;11.20;99.90
52481;DHT22;38393;52.404;13.532;2023-04-29T04:56:27;11.20;99.90
52481;DHT22;38393;52.404;13.532;2023-04-29T04:58:53;11.20;99.90
52481;DHT22;38393;52.404;13.532;2023-04-29T05:01:18;11.20;99.90
52481;DHT22;38393;52.404;13.532;2023-04-29T05:03:44;11.20;99.90
52481;DHT22;38393;52.404;13.532;2023-04-29T05:06:09;11.20;99.90
52481;DHT22;38393;52.404;13.532;2023-04-29T05:08:35;11.30;99.90
52481;DHT22;38393;52.404;13.532;2023-04-29T05:11:00;11.20;99.90
52481;DHT22;38393;52.404;13.532;2023-04-29T05:13:26;11.40;99.90
52481;DHT22;38393;52.404;13.532;2023-04-29T05:15:51;11.30;99.90
52481;DHT22;38393;52.404;13.532;2023-04-29T05:18:16;11.30;99.90
52481;DHT22;38393;52.404;13.532;2023-04-29T05:20:42;11.30;99.90
52481;DHT22;38393;52.404;13.532;2023-04-29T05:23:07;11.40;99.90
52481;DHT22;38393;52.404;13.532;2023-04-29T05:25:34;11.40;99.90
52481;DHT22;38393;52.404;13.532;2023-04-29T05:28:01;11.40;99.90
52481;DHT22;38393;52.404;13.532;2023-04-29T05:30:27;11.40;99.90
52481;DHT22;38393;52.404;13.532;2023-04-29T05:32:52;11.30;99.90
52481;DHT22;38393;52.404;13.532;2023-04-29T05:35:18;11.40;99.90
52481;DHT22;38393;52.404;13.532;2023-04-29T05:37:43;11.50;99.90
52481;DHT22;38393;52.404;13.532;2023-04-29T05:40:09;11.50;99.90
52481;DHT22;38393;52.404;13.532;2023-04-29T05:42:35;11.50;99.90
52481;DHT22;38393;52.404;13.532;2023-04-29T05:45:00;11.50;99.90
52481;DHT22;38393;52.404;13.532;2023-04-29T05:47:26;11.60;99.90
52481;DHT22;38393;52.404;13.532;2023-04-29T05:49:51;11.50;99.90
52481;DHT22;38393;52.404;13.532;2023-04-29T05:52:17;11.60;99.90
52481;DHT22;38393;52.404;13.532;2023-04-29T05:54:42;11.50;99.90
52481;DHT22;38393;52.404;13.532;2023-04-29T05:57:08;11.70;99.90
52481;DHT22;38393;52.404;13.532;2023-04-29T05:59:33;11.60;99.90
52481;DHT22;38393;52.404;13.532;2023-04-29T06:01:59;11.60;99.90
52481;DHT22;38393;52.404;13.532;2023-04-29T06:04:25;11.60;99.90
52481;DHT22;38393;52.404;13.532;2023-04-29T06:06:51;11.60;99.90
52481;DHT22;38393;52.404;13.532;2023-04-29T06:09:19;11.60;99.90
52481;DHT22;38393;52.404;13.532;2023-04-29T06:11:45;11.60;99.90
52481;DHT22;38393;52.404;13.532;2023-04-29T06:14:11;11.80;99.90
52481;DHT22;38393;52.404;13.532;2023-04-29T06:16:36;11.60;99.90
52481;DHT22;38393;52.404;13.532;2023-04-29T06:19:03;11.70;99.90
52481;DHT22;38393;52.404;13.532;2023-04-29T06:21:28;11.60;99.90
52481;DHT22;38393;52.404;13.532;2023-04-29T06:23:54;11.70;99.90
52481;DHT22;38393;52.404;13.532;2023-04-29T06:26:19;11.60;99.90
52481;DHT22;38393;52.404;13.532;2023-04-29T06:28:46;11.70;99.90
52481;DHT22;38393;52.404;13.532;2023-04-29T06:31:12;11.70;99.90
52481;DHT22;38393;52.404;13.532;2023-04-29T06:33:37;11.80;99.90
52481;DHT22;38393;52.404;13.532;2023-04-29T06:36:03;11.80;99.90
52481;DHT22;38393;52.404;13.532;2023-04-29T06:38:29;11.80;99.90
52481;DHT22;38393;52.404;13.532;2023-04-29T06:40:54;11.80;99.90
52481;DHT22;38393;52.404;13.532;2023-04-29T06:43:22;11.70;99.90
52481;DHT22;38393;52.404;13.532;2023-04-29T06:45:47;11.80;99.90
52481;DHT22;38393;52.404;13.532;2023-04-29T06:48:13;11.80;99.90
52481;DHT22;38393;52.404;13.532;2023-04-29T06:50:38;11.90;99.90
52481;DHT22;38393;52.404;13.532;2023-04-29T06:53:04;11.80;99.90
52481;DHT22;38393;52.404;13.532;2023-04-29T06:55:29;11.80;99.90
52481;DHT22;38393;52.404;13.532;2023-04-29T06:57:54;11.90;99.90
52481;DHT22;38393;52.404;13.532;2023-04-29T07:00:20;11.90;99.90
52481;DHT22;38393;52.404;13.532;2023-04-29T07:02:47;12.00;99.90
52481;DHT22;38393;52.404;13.532;2023-04-29T07:05:12;12.00;99.90
52481;DHT22;38393;52.404;13.532;2023-04-29T07:07:38;12.00;99.90
52481;DHT22;38393;52.404;13.532;2023-04-29T07:10:04;12.00;99.90
52481;DHT22;38393;52.404;13.532;2023-04-29T07:12:29;12.00;99.90
52481;DHT22;38393;52.404;13.532;2023-04-29T07:14:56;12.00;99.90
52481;DHT22;38393;52.404;13.532;2023-04-29T07:17:22;12.10;99.90
52481;DHT22;38393;52.404;13.532;2023-04-29T07:19:47;12.00;99.90
52481;DHT22;38393;52.404;13.532;2023-04-29T07:22:13;12.30;99.90
52481;DHT22;38393;52.404;13.532;2023-04-29T07:24:38;12.30;99.90
52481;DHT22;38393;52.404;13.532;2023-04-29T07:27:04;12.10;99.90
52481;DHT22;38393;52.404;13.532;2023-04-29T07:29:29;12.20;99.90
52481;DHT22;38393;52.404;13.532;2023-04-29T07:31:55;12.10;99.90
52481;DHT22;38393;52.404;13.532;2023-04-29T07:34:21;12.20;99.90
52481;DHT22;38393;52.404;13.532;2023-04-29T07:36:46;12.30;99.90
52481;DHT22;38393;52.404;13.532;2023-04-29T07:39:12;12.40;99.90
52481;DHT22;38393;52.404;13.532;2023-04-29T07:41:39;12.60;99.90
52481;DHT22;38393;52.404;13.532;2023-04-29T07:44:05;12.80;99.90
52481;DHT22;38393;52.404;13.532;2023-04-29T07:46:30;12.60;99.90
52481;DHT22;38393;52.404;13.532;2023-04-29T07:48:56;12.60;99.90
52481;DHT22;38393;52.404;13.532;2023-04-29T07:51:22;12.60;99.90
52481;DHT22;38393;52.404;13.532;2023-04-29T07:53:48;12.40;99.90
52481;DHT22;38393;52.404;13.532;2023-04-29T07:56:13;12.60;99.90
52481;DHT22;38393;52.404;13.532;2023-04-29T07:58:38;12.40;99.90
52481;DHT22;38393;52.404;13.532;2023-04-29T08:01:07;12.20;99.90
52481;DHT22;38393;52.404;13.532;2023-04-29T08:03:34;12.30;99.90
52481;DHT22;38393;52.404;13.532;2023-04-29T08:06:03;12.30;99.90
52481;DHT22;38393;52.404;13.532;2023-04-29T08:08:32;12.30;99.90
52481;DHT22;38393;52.404;13.532;2023-04-29T08:10:57;12.30;99.90
52481;DHT22;38393;52.404;13.532;2023-04-29T08:13:23;12.20;99.90
52481;DHT22;38393;52.404;13.532;2023-04-29T08:15:49;12.20;99.90
52481;DHT22;38393;52.404;13.532;2023-04-29T08:18:15;12.10;99.90
52481;DHT22;38393;52.404;13.532;2023-04-29T08:20:40;12.00;99.90
52481;DHT22;38393;52.404;13.532;2023-04-29T08:23:06;12.00;99.90
52481;DHT22;38393;52.404;13.532;2023-04-29T08:25:31;11.90;99.90
52481;DHT22;38393;52.404;13.532;2023-04-29T08:27:57;11.90;99.90
52481;DHT22;38393;52.404;13.532;2023-04-29T08:30:23;11.90;99.90
52481;DHT22;38393;52.404;13.532;2023-04-29T08:32:49;11.80;99.90
52481;DHT22;38393;52.404;13.532;2023-04-29T08:35:15;11.50;99.90
52481;DHT22;38393;52.404;13.532;2023-04-29T08:37:40;11.60;99.90
52481;DHT22;38393;52.404;13.532;2023-04-29T08:40:07;11.70;99.90
52481;DHT22;38393;52.404;13.532;2023-04-29T08:42:35;11.70;99.90
52481;DHT22;38393;52.404;13.532;2023-04-29T08:45:01;11.60;99.90
52481;DHT22;38393;52.404;13.532;2023-04-29T08:47:31;11.60;99.90
52481;DHT22;38393;52.404;13.532;2023-04-29T08:50:04;11.60;99.90
52481;DHT22;38393;52.404;13.532;2023-04-29T08:52:31;11.60;99.90
52481;DHT22;38393;52.404;13.532;2023-04-29T08:54:58;11.70;99.90
52481;DHT22;38393;52.404;13.532;2023-04-29T08:57:25;11.60;99.90
52481;DHT22;38393;52.404;13.532;2023-04-29T08:59:51;11.60;99.90
52481;DHT22;38393;52.404;13.532;2023-04-29T09:02:17;11.50;99.90
52481;DHT22;38393;52.404;13.532;2023-04-29T09:05:03;11.50;99.90
52481;DHT22;38393;52.404;13.532;2023-04-29T09:07:30;11.40;99.90
52481;DHT22;38393;52.404;13.532;2023-04-29T09:09:57;11.50;99.90
52481;DHT22;38393;52.404;13.532;2023-04-29T09:12:23;11.50;99.90
52481;DHT22;38393;52.404;13.532;2023-04-29T09:14:49;11.50;99.90
52481;DHT22;38393;52.404;13.532;2023-04-29T09:17:14;11.50;99.90
52481;DHT22;38393;52.404;13.532;2023-04-29T09:19:40;11.60;99.90
52481;DHT22;38393;52.404;13.532;2023-04-29T09:22:06;11.60;99.90
52481;DHT22;38393;52.404;13.532;2023-04-29T09:24:32;11.50;99.90
52481;DHT22;38393;52.404;13.532;2023-04-29T09:26:58;11.60;99.90
52481;DHT22;38393;52.404;13.532;2023-04-29T09:29:24;11.50;99.90
52481;DHT22;38393;52.404;13.532;2023-04-29T09:31:50;11.50;99.90
52481;DHT22;38393;52.404;13.532;2023-04-29T09:34:32;11.30;99.90
52481;DHT22;38393;52.404;13.532;2023-04-29T09:36:59;11.50;99.90
52481;DHT22;38393;52.404;13.532;2023-04-29T09:39:25;11.50;99.90
52481;DHT22;38393;52.404;13.532;2023-04-29T09:44:16;11.50;99.90
52481;DHT22;38393;52.404;13.532;2023-04-29T09:46:42;11.60;99.90
52481;DHT22;38393;52.404;13.532;2023-04-29T09:49:25;11.60;99.90
52481;DHT22;38393;52.404;13.532;2023-04-29T09:51:52;11.70;99.90
52481;DHT22;38393;52.404;13.532;2023-04-29T09:54:26;11.60;99.90
52481;DHT22;38393;52.404;13.532;2023-04-29T09:56:53;11.80;99.90
52481;DHT22;38393;52.404;13.532;2023-04-29T09:59:20;11.60;99.90
52481;DHT22;38393;52.404;13.532;2023-04-29T10:01:51;11.80;99.90
52481;DHT22;38393;52.404;13.532;2023-04-29T10:04:17;11.80;99.90
52481;DHT22;38393;52.404;13.532;2023-04-29T10:06:44;11.80;99.70
52481;DHT22;38393;52.404;13.532;2023-04-29T10:09:13;11.70;99.90
52481;DHT22;38393;52.404;13.532;2023-04-29T10:11:44;11.70;99.90
52481;DHT22;38393;52.404;13.532;2023-04-29T10:14:15;11.70;99.90
52481;DHT22;38393;52.404;13.532;2023-04-29T10:16:46;11.60;99.90
52481;DHT22;38393;52.404;13.532;2023-04-29T10:19:17;11.50;99.90
52481;DHT22;38393;52.404;13.532;2023-04-29T10:21:44;11.40;99.90
52481;DHT22;38393;52.404;13.532;2023-04-29T10:24:10;11.30;99.90
52481;DHT22;38393;52.404;13.532;2023-04-29T10:26:38;11.20;99.90
52481;DHT22;38393;52.404;13.532;2023-04-29T10:29:04;11.20;99.90
52481;DHT22;38393;52.404;13.532;2023-04-29T10:31:34;11.40;99.90
52481;DHT22;38393;52.404;13.532;2023-04-29T10:34:00;11.30;99.90
52481;DHT22;38393;52.404;13.532;2023-04-29T10:36:27;11.20;99.90
52481;DHT22;38393;52.404;13.532;2023-04-29T10:38:57;11.20;99.90
52481;DHT22;38393;52.404;13.532;2023-04-29T10:41:26;11.10;99.90
52481;DHT22;38393;52.404;13.532;2023-04-29T10:43:53;11.10;99.90
52481;DHT22;38393;52.404;13.532;2023-04-29T10:48:46;11.50;99.90
52481;DHT22;38393;52.404;13.532;2023-04-29T10:51:12;11.50;99.90
52481;DHT22;38393;52.404;13.532;2023-04-29T10:54:01;11.50;99.90
52481;DHT22;38393;52.404;13.532;2023-04-29T10:56:46;11.30;99.90
52481;DHT22;38393;52.404;13.532;2023-04-29T10:59:13;11.20;99.90
52481;DHT22;38393;52.404;13.532;2023-04-29T11:01:50;11.20;99.90
52481;DHT22;38393;52.404;13.532;2023-04-29T11:04:18;11.30;99.90
52481;DHT22;38393;52.404;13.532;2023-04-29T11:06:51;11.20;99.90
52481;DHT22;38393;52.404;13.532;2023-04-29T11:09:23;11.20;99.90
52481;DHT22;38393;52.404;13.532;2023-04-29T11:14:28;11.30;99.90
52481;DHT22;38393;52.404;13.532;2023-04-29T11:16:56;11.30;99.90
52481;DHT22;38393;52.404;13.532;2023-04-29T11:19:24;11.20;99.90
52481;DHT22;38393;52.404;13.532;2023-04-29T11:22:06;11.20;99.90
52481;DHT22;38393;52.404;13.532;2023-04-29T11:24:34;11.40;99.90
52481;DHT22;38393;52.404;13.532;2023-04-29T11:27:01;11.40;99.90
52481;DHT22;38393;52.404;13.532;2023-04-29T11:29:31;11.70;98.90
52481;DHT22;38393;52.404;13.532;2023-04-29T11:32:01;11.70;99.00
52481;DHT22;38393;52.404;13.532;2023-04-29T11:34:26;11.90;98.40
52481;DHT22;38393;52.404;13.532;2023-04-29T11:36:52;12.10;98.30
52481;DHT22;38393;52.404;13.532;2023-04-29T11:39:18;12.40;97.80
52481;DHT22;38393;52.404;13.532;2023-04-29T11:41:43;12.90;95.90
52481;DHT22;38393;52.404;13.532;2023-04-29T11:44:11;13.00;95.30
52481;DHT22;38393;52.404;13.532;2023-04-29T11:46:36;12.90;95.60
52481;DHT22;38393;52.404;13.532;2023-04-29T11:49:02;12.60;96.00
52481;DHT22;38393;52.404;13.532;2023-04-29T11:51:28;12.30;96.30
52481;DHT22;38393;52.404;13.532;2023-04-29T11:53:54;12.20;96.10
52481;DHT22;38393;52.404;13.532;2023-04-29T11:56:21;12.10;96.00
52481;DHT22;38393;52.404;13.532;2023-04-29T11:58:52;12.20;97.00
52481;DHT22;38393;52.404;13.532;2023-04-29T12:01:19;12.50;96.10
52481;DHT22;38393;52.404;13.532;2023-04-29T12:03:45;13.00;95.00
52481;DHT22;38393;52.404;13.532;2023-04-29T12:06:12;13.40;93.60
52481;DHT22;38393;52.404;13.532;2023-04-29T12:08:38;13.90;93.00
52481;DHT22;38393;52.404;13.532;2023-04-29T12:11:05;14.20;91.80
52481;DHT22;38393;52.404;13.532;2023-04-29T12:13:33;14.50;90.20
52481;DHT22;38393;52.404;13.532;2023-04-29T12:16:01;14.50;89.60
52481;DHT22;38393;52.404;13.532;2023-04-29T12:18:27;14.50;89.70
52481;DHT22;38393;52.404;13.532;2023-04-29T12:20:53;14.60;88.20
52481;DHT22;38393;52.404;13.532;2023-04-29T12:23:23;14.70;87.50
52481;DHT22;38393;52.404;13.532;2023-04-29T12:25:55;14.70;85.00
52481;DHT22;38393;52.404;13.532;2023-04-29T12:28:22;14.60;86.30
52481;DHT22;38393;52.404;13.532;2023-04-29T12:30:49;14.30;87.00
52481;DHT22;38393;52.404;13.532;2023-04-29T12:33:21;14.30;88.80
52481;DHT22;38393;52.404;13.532;2023-04-29T12:35:48;14.50;87.00
52481;DHT22;38393;52.404;13.532;2023-04-29T12:38:24;14.40;87.40
52481;DHT22;38393;52.404;13.532;2023-04-29T12:40:58;13.90;88.20
52481;DHT22;38393;52.404;13.532;2023-04-29T12:43:31;13.60;89.90
52481;DHT22;38393;52.404;13.532;2023-04-29T12:46:02;13.50;89.40
52481;DHT22;38393;52.404;13.532;2023-04-29T12:48:32;13.30;90.70
52481;DHT22;38393;52.404;13.532;2023-04-29T12:50:58;13.10;90.90
52481;DHT22;38393;52.404;13.532;2023-04-29T12:53:25;13.10;91.30
52481;DHT22;38393;52.404;13.532;2023-04-29T12:55:51;13.20;91.20
52481;DHT22;38393;52.404;13.532;2023-04-29T12:58:17;13.20;91.70
52481;DHT22;38393;52.404;13.532;2023-04-29T13:00:42;13.50;90.80
52481;DHT22;38393;52.404;13.532;2023-04-29T13:03:08;13.50;90.60
52481;DHT22;38393;52.404;13.532;2023-04-29T13:05:33;13.70;90.60
52481;DHT22;38393;52.404;13.532;2023-04-29T13:07:59;13.80;89.10
52481;DHT22;38393;52.404;13.532;2023-04-29T13:10:24;14.20;87.90
52481;DHT22;38393;52.404;13.532;2023-04-29T13:12:50;14.50;86.90
52481;DHT22;38393;52.404;13.532;2023-04-29T13:15:15;14.40;86.80
52481;DHT22;38393;52.404;13.532;2023-04-29T13:17:41;14.50;85.00
52481;DHT22;38393;52.404;13.532;2023-04-29T13:20:07;14.30;86.60
52481;DHT22;38393;52.404;13.532;2023-04-29T13:22:32;14.10;87.70
52481;DHT22;38393;52.404;13.532;2023-04-29T13:24:58;14.10;85.70
52481;DHT22;38393;52.404;13.532;2023-04-29T13:27:24;14.10;83.80
52481;DHT22;38393;52.404;13.532;2023-04-29T13:29:49;14.20;84.20
52481;DHT22;38393;52.404;13.532;2023-04-29T13:32:15;14.60;81.50
52481;DHT22;38393;52.404;13.532;2023-04-29T13:34:41;14.90;81.00
52481;DHT22;38393;52.404;13.532;2023-04-29T13:37:08;15.20;80.20
52481;DHT22;38393;52.404;13.532;2023-04-29T13:39:33;15.60;79.00
52481;DHT22;38393;52.404;13.532;2023-04-29T13:41:59;15.40;76.70
52481;DHT22;38393;52.404;13.532;2023-04-29T13:44:24;15.40;77.20
52481;DHT22;38393;52.404;13.532;2023-04-29T13:46:50;15.50;76.10
52481;DHT22;38393;52.404;13.532;2023-04-29T13:49:16;15.30;76.80
52481;DHT22;38393;52.404;13.532;2023-04-29T13:51:41;14.90;77.00
52481;DHT22;38393;52.404;13.532;2023-04-29T13:54:07;14.90;77.00
52481;DHT22;38393;52.404;13.532;2023-04-29T13:56:32;14.90;77.70
52481;DHT22;38393;52.404;13.532;2023-04-29T13:58:58;15.00;77.00
52481;DHT22;38393;52.404;13.532;2023-04-29T14:01:23;14.90;77.30
52481;DHT22;38393;52.404;13.532;2023-04-29T14:03:48;14.90;77.30
52481;DHT22;38393;52.404;13.532;2023-04-29T14:06:14;14.90;77.00
52481;DHT22;38393;52.404;13.532;2023-04-29T14:08:40;15.10;76.90
52481;DHT22;38393;52.404;13.532;2023-04-29T14:11:06;15.50;74.70
52481;DHT22;38393;52.404;13.532;2023-04-29T14:13:31;15.40;73.80
52481;DHT22;38393;52.404;13.532;2023-04-29T14:15:56;15.30;75.00
52481;DHT22;38393;52.404;13.532;2023-04-29T14:18:23;15.50;73.90
52481;DHT22;38393;52.404;13.532;2023-04-29T14:20:49;15.40;75.60
52481;DHT22;38393;52.404;13.532;2023-04-29T14:23:14;15.30;73.80
52481;DHT22;38393;52.404;13.532;2023-04-29T14:25:40;15.30;74.30
52481;DHT22;38393;52.404;13.532;2023-04-29T14:28:05;15.10;74.10
52481;DHT22;38393;52.404;13.532;2023-04-29T14:30:31;15.40;73.90
52481;DHT22;38393;52.404;13.532;2023-04-29T14:32:56;15.20;74.30
52481;DHT22;38393;52.404;13.532;2023-04-29T14:35:22;15.20;74.10
52481;DHT22;38393;52.404;13.532;2023-04-29T14:37:47;15.20;73.40
52481;DHT22;38393;52.404;13.532;2023-04-29T14:40:14;15.20;72.80
52481;DHT22;38393;52.404;13.532;2023-04-29T14:42:40;15.00;73.70
52481;DHT22;38393;52.404;13.532;2023-04-29T14:45:06;15.00;74.00
52481;DHT22;38393;52.404;13.532;2023-04-29T14:47:32;15.20;73.00
52481;DHT22;38393;52.404;13.532;2023-04-29T14:49:57;15.30;71.40
52481;DHT22;38393;52.404;13.532;2023-04-29T14:52:23;15.40;70.70
52481;DHT22;38393;52.404;13.532;2023-04-29T14:54:48;15.80;70.40
52481;DHT22;38393;52.404;13.532;2023-04-29T14:57:14;15.90;69.10
52481;DHT22;38393;52.404;13.532;2023-04-29T14:59:39;15.80;69.60
52481;DHT22;38393;52.404;13.532;2023-04-29T15:02:05;15.70;69.30
52481;DHT22;38393;52.404;13.532;2023-04-29T15:04:31;15.50;70.80
52481;DHT22;38393;52.404;13.532;2023-04-29T15:06:56;15.90;68.70
52481;DHT22;38393;52.404;13.532;2023-04-29T15:09:22;15.70;68.10
52481;DHT22;38393;52.404;13.532;2023-04-29T15:11:49;15.90;68.60
52481;DHT22;38393;52.404;13.532;2023-04-29T15:14:14;16.00;70.60
52481;DHT22;38393;52.404;13.532;2023-04-29T15:16:40;16.20;67.90
52481;DHT22;38393;52.404;13.532;2023-04-29T15:19:05;16.60;66.20
52481;DHT22;38393;52.404;13.532;2023-04-29T15:21:31;16.70;65.10
52481;DHT22;38393;52.404;13.532;2023-04-29T15:23:56;16.30;67.30
52481;DHT22;38393;52.404;13.532;2023-04-29T15:26:22;16.40;65.70
52481;DHT22;38393;52.404;13.532;2023-04-29T15:28:47;16.10;66.20